createdAt,value
2019-05-03T00:03:16.632Z,4.20
2019-05-03T00:07:22.350Z,5.53
2019-05-03T00:11:26.663Z,4.80
2019-05-03T00:15:59.267Z,5.23
2019-05-03T00:20:03.548Z,4.80
2019-05-03T00:24:07.803Z,5.63
2019-05-03T00:28:13.323Z,7.50
2019-05-03T00:32:17.687Z,4.20
2019-05-03T00:36:39.524Z,4.80
2019-05-03T00:40:43.784Z,5.50
2019-05-03T00:44:48.076Z,6.87
2019-05-03T00:48:52.573Z,6.67
2019-05-03T00:52:56.812Z,5.27
2019-05-03T00:57:02.671Z,5.40
2019-05-03T01:01:07.209Z,6.77
2019-05-03T01:05:12.037Z,6.80
2019-05-03T01:09:22.587Z,5.73
2019-05-03T01:13:26.929Z,5.93
2019-05-03T01:17:32.098Z,8.47
2019-05-03T01:21:36.299Z,6.07
2019-05-03T01:25:42.870Z,6.00
2019-05-03T01:29:47.222Z,6.07
2019-05-03T01:33:51.757Z,6.50
2019-05-03T01:37:56.170Z,6.50
2019-05-03T01:42:02.491Z,5.10
2019-05-03T01:46:06.379Z,7.17
2019-05-03T01:50:18.969Z,6.07
2019-05-03T01:54:23.183Z,7.23
2019-05-03T01:58:27.436Z,6.90
2019-05-03T02:02:53.819Z,6.37
2019-05-03T02:06:58.336Z,8.80
2019-05-03T02:11:02.621Z,8.27
2019-05-03T02:15:07.311Z,9.47
2019-05-03T02:19:12.683Z,8.20
2019-05-03T02:23:17.185Z,9.60
2019-05-03T02:27:21.975Z,8.00
2019-05-03T02:31:26.301Z,8.43
2019-05-03T02:35:33.161Z,7.30
2019-05-03T02:39:36.835Z,8.27
2019-05-03T02:43:51.757Z,9.13
2019-05-03T02:48:05.850Z,10.10
2019-05-03T02:52:28.210Z,11.07
2019-05-03T02:56:32.469Z,11.10
2019-05-03T03:01:00.182Z,9.00
2019-05-03T03:05:05.757Z,7.77
2019-05-03T03:09:10.334Z,9.23
2019-05-03T03:13:16.322Z,12.27
2019-05-03T03:17:25.468Z,7.63
2019-05-03T03:21:35.952Z,7.67
2019-05-03T03:25:42.749Z,6.97
2019-05-03T03:29:50.708Z,6.70
2019-05-03T03:33:59.187Z,5.87
2019-05-03T03:38:05.600Z,7.33
2019-05-03T03:42:11.068Z,5.53
2019-05-03T03:46:17.686Z,5.87
2019-05-03T03:50:25.917Z,6.43
2019-05-03T03:54:35.559Z,5.13
2019-05-03T03:58:40.049Z,7.93
2019-05-03T04:02:45.849Z,6.60
2019-05-03T04:06:52.089Z,6.03
2019-05-03T04:10:56.460Z,4.00
2019-05-03T04:15:07.850Z,5.50
2019-05-03T04:19:17.544Z,6.87
2019-05-03T04:23:21.860Z,4.93
2019-05-03T04:27:27.734Z,3.77
2019-05-03T04:31:32.122Z,4.80
2019-05-03T04:35:36.795Z,3.43
2019-05-03T04:39:41.171Z,3.77
2019-05-03T04:43:46.056Z,3.57
2019-05-03T04:47:50.381Z,5.33
2019-05-03T04:51:56.029Z,3.73
2019-05-03T04:56:00.480Z,3.23
2019-05-03T05:00:10.714Z,1.60
2019-05-03T05:04:12.104Z,1.23
2019-05-03T05:08:16.501Z,1.43
2019-05-03T05:12:21.164Z,1.67
2019-05-03T05:16:25.434Z,1.50
2019-05-03T05:20:36.616Z,1.47
2019-05-03T05:24:40.862Z,1.90
2019-05-03T05:28:50.398Z,1.00
2019-05-03T05:32:55.368Z,1.13
2019-05-03T05:36:59.655Z,0.40
2019-05-03T05:41:05.317Z,0.80
2019-05-03T05:45:09.799Z,1.07
2019-05-03T05:49:15.627Z,0.90
2019-05-03T05:53:19.881Z,1.40
2019-05-03T05:58:05.241Z,1.30
2019-05-03T06:02:09.589Z,1.37
2019-05-03T06:06:18.512Z,1.33
2019-05-03T06:10:37.383Z,0.60
2019-05-03T06:14:45.864Z,0.80
2019-05-03T06:19:18.299Z,2.07
2019-05-03T06:23:27.081Z,0.83
2019-05-03T06:27:35.492Z,0.93
2019-05-03T06:31:49.624Z,1.27
2019-05-03T06:35:54.684Z,0.97
2019-05-03T06:39:59.083Z,1.30
2019-05-03T06:44:04.366Z,0.90
2019-05-03T06:48:08.687Z,0.53
2019-05-03T06:52:14.764Z,0.77
2019-05-03T06:56:23.615Z,1.47
2019-05-03T07:00:45.215Z,1.83
2019-05-03T07:04:51.389Z,0.83
2019-05-03T07:09:02.537Z,0.77
2019-05-03T07:13:09.105Z,1.33
2019-05-03T07:17:14.462Z,0.97
2019-05-03T07:21:19.058Z,0.67
2019-05-03T07:25:25.306Z,0.90
2019-05-03T07:29:29.354Z,0.57
2019-05-03T07:33:35.818Z,0.63
2019-05-03T07:37:40.863Z,2.00
2019-05-03T07:41:45.395Z,1.10
2019-05-03T07:45:49.794Z,1.03
2019-05-03T07:49:54.707Z,1.30
2019-05-03T07:53:59.605Z,0.67
2019-05-03T07:58:04.655Z,0.67
2019-05-03T08:02:09.137Z,1.07
2019-05-03T08:06:14.939Z,1.30
2019-05-03T08:10:21.984Z,0.50
2019-05-03T08:14:26.330Z,0.70
2019-05-03T08:18:30.661Z,1.03
2019-05-03T08:22:34.984Z,0.87
2019-05-03T08:26:39.884Z,0.67
2019-05-03T08:31:12.472Z,0.60
2019-05-03T08:35:26.025Z,0.60
2019-05-03T08:39:30.458Z,0.60
2019-05-03T08:43:36.849Z,0.90
2019-05-03T08:47:41.196Z,0.90
2019-05-03T08:51:45.677Z,0.77
2019-05-03T08:55:49.978Z,1.33
2019-05-03T08:59:54.968Z,0.97
2019-05-03T09:03:59.470Z,0.80
2019-05-03T09:08:05.668Z,1.20
2019-05-03T09:12:10.908Z,1.53
2019-05-03T09:16:15.375Z,1.43
2019-05-03T09:20:19.587Z,0.73
2019-05-03T09:24:24.590Z,1.80
2019-05-03T09:28:29.387Z,1.60
2019-05-03T09:32:35.013Z,1.20
2019-05-03T09:36:39.344Z,1.33
2019-05-03T09:40:45.409Z,2.60
2019-05-03T09:44:52.474Z,2.70
2019-05-03T09:49:09.529Z,1.70
2019-05-03T09:53:01.715Z,1.07
2019-05-03T09:57:05.978Z,2.13
2019-05-03T10:01:10.225Z,2.40
2019-05-03T10:05:15.599Z,3.43
2019-05-03T10:09:19.983Z,3.57
2019-05-03T10:13:27.072Z,3.07
2019-05-03T10:17:47.630Z,3.07
2019-05-03T10:21:51.840Z,2.83
2019-05-03T10:25:56.123Z,3.60
2019-05-03T10:30:12.206Z,4.10
2019-05-03T10:34:07.113Z,3.67
2019-05-03T10:38:11.362Z,3.07
2019-05-03T10:42:15.573Z,3.53
2019-05-03T10:46:19.954Z,3.03
2019-05-03T10:50:25.243Z,3.63
2019-05-03T10:54:29.762Z,2.97
2019-05-03T10:58:35.673Z,3.50
2019-05-03T11:02:47.539Z,2.67
2019-05-03T11:06:51.868Z,2.53
2019-05-03T11:10:56.144Z,3.53
2019-05-03T11:15:00.398Z,2.83
2019-05-03T11:19:05.484Z,2.70
2019-05-03T11:23:10.687Z,2.83
2019-05-03T11:27:19.695Z,1.90
2019-05-03T11:31:41.842Z,3.60
2019-05-03T11:36:01.570Z,1.90
2019-05-03T11:40:06.615Z,2.20
2019-05-03T11:44:28.464Z,2.27
2019-05-03T11:48:34.733Z,2.50
2019-05-03T11:52:39.152Z,1.93
2019-05-03T11:56:44.958Z,1.90
2019-05-03T12:01:12.951Z,3.03
2019-05-03T12:05:17.291Z,2.10
2019-05-03T12:09:21.870Z,2.70
2019-05-03T12:13:30.826Z,3.53
2019-05-03T12:17:50.755Z,5.43
2019-05-03T12:21:44.710Z,5.47
2019-05-03T12:25:50.239Z,5.13
2019-05-03T12:29:54.788Z,4.77
2019-05-03T12:33:59.390Z,4.50
2019-05-03T12:38:05.455Z,4.07
2019-05-03T12:42:10.840Z,6.00
2019-05-03T12:46:16.817Z,4.30
2019-05-03T12:50:21.466Z,3.20
2019-05-03T12:54:25.880Z,2.67
2019-05-03T12:58:55.248Z,1.53
2019-05-03T13:03:04.590Z,3.93
2019-05-03T13:07:29.713Z,3.20
2019-05-03T13:11:36.622Z,3.57
2019-05-03T13:15:41.144Z,3.53
2019-05-03T13:19:45.544Z,5.53
2019-05-03T13:23:50.044Z,2.83
2019-05-03T13:27:54.922Z,3.77
2019-05-03T13:32:02.181Z,5.80
2019-05-03T13:36:06.528Z,5.50
2019-05-03T13:40:11.259Z,5.53
2019-05-03T13:44:15.845Z,4.87
2019-05-03T13:48:21.189Z,7.70
2019-05-03T13:52:26.122Z,6.60
2019-05-03T13:56:30.465Z,7.57
2019-05-03T14:00:35.374Z,5.43
2019-05-03T14:04:50.139Z,4.87
2019-05-03T14:08:46.081Z,6.97
2019-05-03T14:12:50.560Z,6.03
2019-05-03T14:16:54.835Z,5.40
2019-05-03T14:21:15.093Z,11.10
2019-05-03T14:25:19.586Z,6.47
2019-05-03T14:29:25.252Z,5.83
2019-05-03T14:33:29.869Z,7.23
2019-05-03T14:37:34.945Z,6.83
2019-05-03T14:41:40.576Z,6.47
2019-05-03T14:45:44.918Z,6.67
2019-05-03T14:49:49.339Z,6.37
2019-05-03T14:53:54.268Z,5.80
2019-05-03T14:58:35.281Z,6.03
2019-05-03T15:02:51.203Z,4.43
2019-05-03T15:06:57.955Z,6.00
2019-05-03T15:11:01.631Z,6.10
2019-05-03T15:15:06.668Z,7.63
2019-05-03T15:19:10.963Z,5.83
2019-05-03T15:23:15.380Z,6.23
2019-05-03T15:27:19.775Z,4.77
2019-05-03T15:31:24.600Z,6.43
2019-05-03T15:35:29.016Z,4.73
2019-05-03T15:39:33.242Z,4.57
2019-05-03T15:43:55.568Z,6.30
2019-05-03T15:48:12.634Z,7.70
2019-05-03T15:52:16.925Z,6.63
2019-05-03T15:56:21.213Z,8.20
2019-05-03T16:00:25.594Z,5.50
2019-05-03T16:04:29.899Z,6.23
2019-05-03T16:08:34.696Z,7.07
2019-05-03T16:12:39.142Z,6.83
2019-05-03T16:16:45.120Z,6.17
2019-05-03T16:20:49.460Z,6.37
2019-05-03T16:24:55.241Z,6.83
2019-05-03T16:29:08.511Z,6.43
2019-05-03T16:33:25.563Z,6.53
2019-05-03T16:37:18.802Z,8.03
2019-05-03T16:41:24.681Z,5.97
2019-05-03T16:45:29.685Z,4.97
2019-05-03T16:49:35.254Z,4.53
2019-05-03T16:53:39.719Z,6.33
2019-05-03T16:57:44.378Z,5.60
2019-05-03T17:01:48.725Z,5.93
2019-05-03T17:06:30.320Z,6.80
2019-05-03T17:10:37.731Z,5.20
2019-05-03T17:14:41.956Z,5.50
2019-05-03T17:18:46.273Z,5.73
2019-05-03T17:22:51.560Z,7.10
2019-05-03T17:26:55.837Z,6.47
2019-05-03T17:31:00.345Z,4.63
2019-05-03T17:35:05.417Z,4.33
2019-05-03T17:39:14.994Z,3.97
2019-05-03T17:43:41.352Z,4.43
2019-05-03T17:47:45.627Z,5.03
2019-05-03T17:52:19.300Z,5.40
2019-05-03T17:56:44.500Z,6.47
2019-05-03T18:01:00.574Z,4.63
2019-05-03T18:05:25.151Z,4.37
2019-05-03T18:09:34.443Z,6.20
2019-05-03T18:13:39.730Z,5.73
2019-05-03T18:17:46.278Z,6.83
2019-05-03T18:21:50.855Z,4.63
2019-05-03T18:25:55.287Z,4.23
2019-05-03T18:30:00.077Z,6.60
2019-05-03T18:34:18.358Z,5.37
2019-05-03T18:38:11.790Z,6.23
2019-05-03T18:42:24.523Z,5.57
2019-05-03T18:46:39.037Z,6.27
2019-05-03T18:50:45.481Z,4.87
2019-05-03T18:54:49.531Z,5.63
2019-05-03T18:58:54.333Z,5.80
2019-05-03T19:02:59.187Z,5.40
2019-05-03T19:07:07.099Z,6.13
2019-05-03T19:11:18.663Z,5.27
2019-05-03T19:15:25.064Z,6.47
2019-05-03T19:19:35.273Z,6.53
2019-05-03T19:28:09.446Z,7.03
2019-05-03T19:32:14.992Z,5.43
2019-05-03T19:36:19.868Z,6.13
2019-05-03T19:40:25.604Z,7.33
2019-05-03T19:44:30.117Z,6.40
2019-05-03T19:48:34.936Z,5.10
2019-05-03T19:53:14.504Z,4.00
2019-05-03T19:57:21.248Z,5.57
2019-05-03T20:01:35.861Z,5.97
2019-05-03T20:05:49.768Z,4.80
2019-05-03T20:09:54.462Z,5.00
2019-05-03T20:13:59.104Z,5.47
2019-05-03T20:18:04.922Z,5.47
2019-05-03T20:22:09.528Z,4.77
2019-05-03T20:26:15.304Z,5.37
2019-05-03T20:30:19.983Z,5.57
2019-05-03T20:34:24.918Z,5.73
2019-05-03T20:38:29.418Z,4.53
2019-05-03T20:43:11.239Z,4.33
2019-05-03T20:47:22.375Z,4.33
2019-05-03T20:51:26.631Z,4.33
2019-05-03T20:55:30.883Z,3.70
2019-05-03T20:59:42.919Z,3.93
2019-05-03T21:03:41.368Z,4.37
2019-05-03T21:07:45.658Z,3.93
2019-05-03T21:11:49.920Z,4.30
2019-05-03T21:16:14.771Z,4.57
2019-05-03T21:20:45.071Z,4.00
2019-05-03T21:24:54.973Z,4.90
2019-05-03T21:28:59.247Z,5.67
2019-05-03T21:33:05.410Z,5.77
2019-05-03T21:37:09.949Z,5.33
2019-05-03T21:41:15.754Z,6.87
2019-05-03T21:45:24.688Z,4.73
2019-05-03T21:49:38.331Z,6.23
2019-05-03T21:53:42.610Z,5.07
2019-05-03T21:57:47.070Z,5.17
2019-05-03T22:01:51.535Z,5.13
2019-05-03T22:05:57.997Z,5.53
2019-05-03T22:10:01.809Z,4.40
2019-05-03T22:14:09.899Z,5.83
2019-05-03T22:18:25.449Z,5.97
2019-05-03T22:22:45.158Z,6.43
2019-05-03T22:26:51.493Z,5.37
2019-05-03T22:30:55.717Z,7.30
2019-05-03T22:34:59.992Z,6.70
2019-05-03T22:39:06.735Z,6.43
2019-05-03T22:43:11.013Z,6.60
2019-05-03T22:47:15.284Z,5.33
2019-05-03T22:51:19.586Z,6.43
2019-05-03T22:55:24.694Z,7.20
2019-05-03T22:59:29.034Z,5.07
2019-05-03T23:03:35.453Z,7.67
2019-05-03T23:07:39.768Z,6.20
2019-05-03T23:11:44.736Z,7.27
2019-05-03T23:15:49.279Z,6.97
2019-05-03T23:19:57.958Z,7.27
2019-05-03T23:24:02.180Z,8.30
2019-05-03T23:28:06.426Z,5.77
2019-05-03T23:32:10.680Z,6.07
2019-05-03T23:36:15.500Z,7.00
2019-05-03T23:40:19.767Z,7.57
2019-05-03T23:44:24.506Z,8.57
2019-05-03T23:48:29.230Z,6.67
2019-05-03T23:52:37.592Z,7.87
2019-05-03T23:56:41.787Z,7.73
